createdAt,value
2018-01-06T00:00:59.685Z,0.40
2018-01-06T00:03:27.249Z,1.10
2018-01-06T00:05:54.784Z,0.70
2018-01-06T00:08:22.732Z,0.30
2018-01-06T00:10:50.674Z,0.60
2018-01-06T00:13:18.231Z,0.40
2018-01-06T00:15:45.781Z,0.40
2018-01-06T00:18:13.307Z,0.67
2018-01-06T00:20:41.248Z,0.27
2018-01-06T00:23:09.171Z,0.20
2018-01-06T00:25:36.738Z,0.30
2018-01-06T00:28:05.057Z,0.87
2018-01-06T00:30:33.020Z,0.30
2018-01-06T00:33:01.723Z,0.20
2018-01-06T00:35:29.472Z,0.40
2018-01-06T00:37:57.025Z,0.30
2018-01-06T00:40:24.546Z,0.10
2018-01-06T00:42:52.482Z,0.57
2018-01-06T00:45:19.975Z,0.40
2018-01-06T00:47:47.528Z,0.20
2018-01-06T00:50:15.064Z,3.30
2018-01-06T00:52:43.025Z,0.10
2018-01-06T00:55:10.933Z,0.10
2018-01-06T00:57:38.454Z,0.17
2018-01-06T01:00:06.363Z,0.73
2018-01-06T01:02:33.886Z,0.27
2018-01-06T01:05:01.826Z,0.30
2018-01-06T01:07:29.843Z,0.20
2018-01-06T01:09:57.350Z,0.30
2018-01-06T01:12:24.870Z,1.83
2018-01-06T01:14:52.366Z,0.20
2018-01-06T01:17:20.274Z,0.70
2018-01-06T01:19:47.792Z,0.53
2018-01-06T01:22:15.692Z,0.20
2018-01-06T01:24:43.215Z,0.93
2018-01-06T01:27:11.098Z,1.63
2018-01-06T01:29:39.023Z,0.67
2018-01-06T01:32:06.516Z,1.80
2018-01-06T01:34:34.410Z,0.20
2018-01-06T01:37:01.962Z,0.30
2018-01-06T01:39:29.547Z,1.30
2018-01-06T01:41:57.077Z,0.10
2018-01-06T01:44:24.567Z,0.30
2018-01-06T01:46:52.086Z,0.10
2018-01-06T01:49:19.578Z,0.57
2018-01-06T01:51:47.076Z,0.20
2018-01-06T01:54:14.595Z,0.30
2018-01-06T01:56:42.094Z,2.00
2018-01-06T01:59:09.602Z,0.10
2018-01-06T02:01:37.094Z,0.53
2018-01-06T02:04:04.624Z,0.13
2018-01-06T02:06:32.895Z,0.10
2018-01-06T02:09:00.903Z,0.10
2018-01-06T02:11:28.818Z,0.20
2018-01-06T02:13:56.330Z,0.40
2018-01-06T02:16:23.826Z,0.00
2018-01-06T02:18:51.780Z,0.20
2018-01-06T02:21:19.258Z,0.23
2018-01-06T02:23:47.156Z,0.20
2018-01-06T02:26:15.128Z,0.03
2018-01-06T02:28:42.637Z,0.20
2018-01-06T02:31:10.146Z,0.40
2018-01-06T02:33:37.638Z,0.87
2018-01-06T02:36:05.187Z,0.13
2018-01-06T02:38:33.085Z,0.50
2018-01-06T02:41:01.003Z,0.53
2018-01-06T02:43:28.502Z,0.80
2018-01-06T02:45:56.011Z,0.10
2018-01-06T02:48:23.567Z,2.57
2018-01-06T02:50:51.058Z,0.40
2018-01-06T02:53:18.971Z,0.20
2018-01-06T02:55:46.866Z,0.20
2018-01-06T02:58:14.782Z,0.97
2018-01-06T03:00:42.282Z,1.33
2018-01-06T03:03:10.219Z,0.20
2018-01-06T03:05:37.723Z,0.10
2018-01-06T03:08:05.234Z,0.20
2018-01-06T03:10:32.739Z,0.37
2018-01-06T03:13:00.651Z,0.10
2018-01-06T03:15:28.538Z,2.37
2018-01-06T03:17:56.795Z,1.23
2018-01-06T03:20:24.311Z,0.37
2018-01-06T03:22:51.797Z,0.80
2018-01-06T03:25:19.703Z,0.10
2018-01-06T03:27:48.719Z,0.10
2018-01-06T03:30:16.248Z,0.20
2018-01-06T03:32:43.754Z,0.20
2018-01-06T03:35:13.582Z,0.20
2018-01-06T03:41:02.274Z,0.20
2018-01-06T03:43:29.768Z,0.23
2018-01-06T03:45:57.278Z,0.30
2018-01-06T03:48:25.166Z,0.20
2018-01-06T03:50:53.448Z,0.10
2018-01-06T03:53:21.334Z,0.00
2018-01-06T03:55:48.842Z,0.20
2018-01-06T03:58:16.337Z,0.20
2018-01-06T04:00:44.250Z,0.23
2018-01-06T04:03:11.750Z,0.20
2018-01-06T04:05:39.639Z,0.20
2018-01-06T04:08:07.160Z,0.20
2018-01-06T04:10:34.649Z,0.20
2018-01-06T04:13:02.170Z,0.33
2018-01-06T04:15:30.071Z,0.83
2018-01-06T04:17:57.982Z,0.20
2018-01-06T04:20:25.473Z,0.40
2018-01-06T04:22:52.995Z,0.30
2018-01-06T04:25:20.490Z,0.50
2018-01-06T04:27:48.015Z,0.30
2018-01-06T04:30:15.913Z,0.80
2018-01-06T04:32:43.442Z,0.27
2018-01-06T04:35:10.934Z,0.20
2018-01-06T04:37:38.426Z,1.47
2018-01-06T04:40:05.947Z,0.40
2018-01-06T04:42:33.835Z,0.30
2018-01-06T04:45:01.358Z,0.23
2018-01-06T04:47:28.850Z,0.27
2018-01-06T04:49:56.777Z,0.37
2018-01-06T04:52:24.266Z,0.20
2018-01-06T04:54:51.796Z,1.30
2018-01-06T04:57:19.283Z,0.30
2018-01-06T04:59:47.195Z,0.20
2018-01-06T05:02:15.082Z,0.20
2018-01-06T05:04:42.586Z,0.37
2018-01-06T05:07:10.098Z,0.50
2018-01-06T05:09:37.586Z,0.60
2018-01-06T05:12:05.113Z,1.00
2018-01-06T05:14:33.013Z,0.50
2018-01-06T05:17:00.517Z,0.60
2018-01-06T05:19:28.006Z,0.57
2018-01-06T05:21:55.520Z,1.00
2018-01-06T05:24:23.010Z,0.60
2018-01-06T05:26:50.537Z,0.63
2018-01-06T05:29:18.026Z,1.13
2018-01-06T05:31:45.522Z,0.80
2018-01-06T05:34:13.098Z,0.53
2018-01-06T05:36:40.586Z,0.90
2018-01-06T05:39:08.094Z,0.70
2018-01-06T05:41:35.987Z,0.40
2018-01-06T05:44:03.494Z,1.73
2018-01-06T05:46:30.990Z,0.50
2018-01-06T05:48:58.610Z,1.57
2018-01-06T05:51:26.300Z,0.40
2018-01-06T05:53:53.855Z,2.23
2018-01-06T05:56:21.742Z,0.43
2018-01-06T05:58:49.267Z,1.13
2018-01-06T06:01:16.762Z,0.30
2018-01-06T06:03:44.652Z,2.20
2018-01-06T06:06:12.154Z,0.40
2018-01-06T06:08:39.643Z,0.40
2018-01-06T06:11:07.162Z,1.93
2018-01-06T06:13:34.654Z,0.60
2018-01-06T06:16:02.169Z,0.57
2018-01-06T06:18:29.666Z,1.17
2018-01-06T06:20:57.183Z,1.60
2018-01-06T06:23:25.075Z,3.13
2018-01-06T06:25:53.009Z,2.10
2018-01-06T06:28:20.502Z,1.03
2018-01-06T06:30:48.021Z,1.60
2018-01-06T06:33:15.925Z,2.37
2018-01-06T06:35:43.410Z,3.17
2018-01-06T06:38:11.690Z,2.70
2018-01-06T06:40:39.182Z,3.17
2018-01-06T06:43:07.825Z,1.50
2018-01-06T06:45:35.327Z,3.00
2018-01-06T06:48:02.846Z,1.80
2018-01-06T06:50:30.450Z,2.97
2018-01-06T06:52:57.971Z,5.83
2018-01-06T06:55:25.462Z,1.50
2018-01-06T06:57:52.958Z,2.20
2018-01-06T07:00:21.257Z,1.93
2018-01-06T07:02:48.753Z,1.60
2018-01-06T07:05:17.034Z,1.70
2018-01-06T07:07:44.948Z,3.63
2018-01-06T07:10:12.466Z,6.20
2018-01-06T07:12:40.368Z,2.53
2018-01-06T07:15:07.883Z,2.60
2018-01-06T07:17:35.390Z,2.53
2018-01-06T07:20:02.906Z,3.07
2018-01-06T07:22:30.798Z,4.87
2018-01-06T07:24:58.323Z,3.83
2018-01-06T07:27:26.207Z,4.90
2018-01-06T07:29:53.694Z,4.73
2018-01-06T07:32:21.208Z,4.33
2018-01-06T07:34:48.786Z,3.73
2018-01-06T07:37:16.891Z,4.77
2018-01-06T07:39:45.045Z,9.17
2018-01-06T07:42:12.575Z,4.83
2018-01-06T07:44:40.073Z,4.60
2018-01-06T07:47:07.590Z,3.80
2018-01-06T07:49:35.561Z,4.77
2018-01-06T07:52:03.221Z,4.40
2018-01-06T07:54:31.207Z,3.27
2018-01-06T07:56:58.714Z,5.27
2018-01-06T07:59:26.222Z,4.10
2018-01-06T08:01:54.857Z,3.33
2018-01-06T08:04:22.366Z,3.10
2018-01-06T08:06:49.883Z,3.43
2018-01-06T08:09:17.382Z,3.27
2018-01-06T08:11:45.278Z,5.03
2018-01-06T08:14:13.205Z,3.67
2018-01-06T08:16:40.701Z,4.13
2018-01-06T08:19:08.599Z,4.80
2018-01-06T08:21:36.347Z,4.33
2018-01-06T08:24:03.842Z,4.00
2018-01-06T08:26:31.754Z,5.53
2018-01-06T08:28:59.250Z,3.57
2018-01-06T08:31:27.526Z,2.83
2018-01-06T08:33:55.022Z,3.73
2018-01-06T08:36:22.926Z,3.27
2018-01-06T08:38:50.819Z,3.50
2018-01-06T08:41:18.351Z,4.63
2018-01-06T08:43:46.242Z,3.93
2018-01-06T08:46:14.526Z,3.53
2018-01-06T08:48:42.046Z,4.77
2018-01-06T08:51:09.542Z,3.10
2018-01-06T08:53:37.454Z,2.93
2018-01-06T08:56:04.950Z,3.53
2018-01-06T08:58:32.854Z,3.57
2018-01-06T09:01:00.739Z,2.50
2018-01-06T09:03:29.087Z,2.27
2018-01-06T09:05:56.572Z,2.53
2018-01-06T09:08:25.594Z,3.27
2018-01-06T09:10:53.095Z,2.40
2018-01-06T09:13:20.622Z,1.83
2018-01-06T09:15:48.133Z,2.00
2018-01-06T09:18:16.019Z,2.27
2018-01-06T09:20:43.531Z,1.93
2018-01-06T09:23:11.040Z,2.90
2018-01-06T09:25:38.963Z,2.03
2018-01-06T09:28:06.462Z,2.43
2018-01-06T09:30:34.016Z,2.67
2018-01-06T09:33:02.647Z,1.83
2018-01-06T09:35:30.553Z,1.70
2018-01-06T09:37:58.442Z,2.20
2018-01-06T09:40:26.719Z,2.20
2018-01-06T09:42:54.819Z,1.67
2018-01-06T09:45:22.733Z,2.30
2018-01-06T09:47:50.998Z,2.13
2018-01-06T09:50:18.893Z,2.47
2018-01-06T09:52:46.888Z,3.07
2018-01-06T09:55:14.391Z,1.80
2018-01-06T09:57:41.915Z,1.30
2018-01-06T10:00:09.410Z,1.40
2018-01-06T10:02:36.930Z,1.30
2018-01-06T10:05:04.425Z,2.00
2018-01-06T10:07:32.370Z,2.90
2018-01-06T10:10:00.635Z,1.87
2018-01-06T10:12:28.142Z,2.97
2018-01-06T10:14:55.630Z,0.87
2018-01-06T10:17:23.177Z,1.57
2018-01-06T10:19:50.685Z,1.30
2018-01-06T10:22:18.178Z,2.10
2018-01-06T10:24:45.698Z,1.50
2018-01-06T10:27:13.590Z,1.30
2018-01-06T10:29:41.114Z,1.57
2018-01-06T10:32:08.606Z,1.20
2018-01-06T10:34:36.131Z,1.60
2018-01-06T10:37:04.035Z,1.10
2018-01-06T10:39:31.558Z,1.40
2018-01-06T10:41:59.054Z,0.90
2018-01-06T10:44:26.588Z,1.17
2018-01-06T10:46:54.150Z,0.67
2018-01-06T10:49:21.658Z,0.97
2018-01-06T10:51:49.182Z,1.17
2018-01-06T10:54:17.543Z,1.00
2018-01-06T10:56:45.056Z,2.70
2018-01-06T10:59:13.331Z,0.70
2018-01-06T11:01:46.860Z,0.70
2018-01-06T11:04:14.353Z,1.00
2018-01-06T11:06:42.276Z,1.40
2018-01-06T11:09:09.782Z,0.70
2018-01-06T11:11:37.310Z,0.60
2018-01-06T11:14:04.806Z,0.73
2018-01-06T11:16:32.718Z,1.20
2018-01-06T11:19:00.998Z,0.80
2018-01-06T11:21:28.537Z,1.80
2018-01-06T11:23:56.042Z,0.80
2018-01-06T11:26:23.558Z,0.73
2018-01-06T11:28:51.114Z,0.83
2018-01-06T11:31:18.606Z,5.93
2018-01-06T11:33:46.118Z,1.73
2018-01-06T11:36:14.350Z,1.73
2018-01-06T11:38:42.272Z,0.70
2018-01-06T11:41:10.158Z,2.13
2018-01-06T11:43:38.077Z,0.90
2018-01-06T11:46:06.354Z,1.17
2018-01-06T11:48:33.882Z,1.50
2018-01-06T11:51:01.782Z,0.57
2018-01-06T11:53:29.319Z,2.03
2018-01-06T11:55:56.810Z,1.17
2018-01-06T11:58:24.306Z,1.87
2018-01-06T12:00:51.831Z,1.03
2018-01-06T12:03:19.727Z,0.97
2018-01-06T12:05:48.008Z,2.83
2018-01-06T12:08:15.692Z,1.97
2018-01-06T12:10:43.216Z,1.00
2018-01-06T12:13:11.112Z,1.30
2018-01-06T12:15:38.630Z,1.57
2018-01-06T12:18:06.147Z,2.07
2018-01-06T12:20:34.058Z,1.33
2018-01-06T12:23:01.952Z,2.50
2018-01-06T12:25:29.467Z,1.20
2018-01-06T12:27:56.998Z,0.90
2018-01-06T12:30:25.271Z,1.03
2018-01-06T12:32:52.778Z,1.50
2018-01-06T12:35:21.031Z,1.60
2018-01-06T12:37:48.942Z,0.80
2018-01-06T12:40:17.566Z,2.27
2018-01-06T12:42:45.472Z,1.30
2018-01-06T12:45:13.727Z,1.20
2018-01-06T12:47:41.246Z,1.23
2018-01-06T12:50:09.130Z,1.17
2018-01-06T12:52:36.647Z,1.00
2018-01-06T12:55:04.925Z,1.07
2018-01-06T12:57:32.422Z,2.20
2018-01-06T13:00:00.698Z,1.13
2018-01-06T13:02:28.594Z,0.70
2018-01-06T13:04:56.102Z,0.70
2018-01-06T13:07:23.610Z,0.90
2018-01-06T13:09:51.123Z,1.17
2018-01-06T13:12:19.386Z,1.03
2018-01-06T13:14:47.298Z,0.80
2018-01-06T13:17:14.840Z,1.73
2018-01-06T13:19:42.366Z,1.20
2018-01-06T13:22:10.266Z,1.10
2018-01-06T13:24:37.759Z,1.37
2018-01-06T13:27:05.769Z,0.80
2018-01-06T13:29:33.650Z,1.50
2018-01-06T13:32:01.155Z,1.00
2018-01-06T13:34:29.043Z,1.60
2018-01-06T13:36:56.954Z,1.77
2018-01-06T13:39:24.838Z,0.83
2018-01-06T13:41:52.350Z,1.10
2018-01-06T13:44:19.854Z,1.03
2018-01-06T13:46:47.383Z,2.17
2018-01-06T13:49:14.885Z,0.90
2018-01-06T13:51:42.892Z,1.00
2018-01-06T13:54:10.807Z,0.90
2018-01-06T13:56:38.301Z,1.43
2018-01-06T13:59:06.630Z,0.73
2018-01-06T14:01:34.134Z,1.67
2018-01-06T14:04:02.043Z,1.50
2018-01-06T14:06:30.303Z,1.40
2018-01-06T14:08:57.830Z,0.70
2018-01-06T14:11:25.327Z,1.53
2018-01-06T14:13:52.846Z,1.30
2018-01-06T14:16:21.306Z,1.97
2018-01-06T14:18:49.214Z,1.03
2018-01-06T14:21:16.760Z,1.00
2018-01-06T14:23:44.662Z,0.90
2018-01-06T14:26:12.160Z,11.63
2018-01-06T14:28:40.843Z,1.33
2018-01-06T14:31:08.359Z,1.03
2018-01-06T14:33:36.238Z,1.00
2018-01-06T14:36:03.750Z,0.93
2018-01-06T14:38:31.276Z,1.20
2018-01-06T14:40:58.781Z,1.00
2018-01-06T14:43:26.309Z,1.20
2018-01-06T14:45:54.215Z,1.47
2018-01-06T14:48:22.112Z,2.00
2018-01-06T14:50:50.030Z,1.10
2018-01-06T14:53:18.482Z,1.17
2018-01-06T14:55:46.451Z,1.40
2018-01-06T14:58:14.351Z,2.17
2018-01-06T15:00:41.900Z,1.43
2018-01-06T15:03:09.855Z,3.27
2018-01-06T15:05:37.791Z,2.43
2018-01-06T15:08:05.352Z,0.60
2018-01-06T15:10:33.616Z,1.03
2018-01-06T15:13:01.178Z,2.23
2018-01-06T15:15:29.807Z,0.83
2018-01-06T15:17:57.331Z,2.03
2018-01-06T15:20:25.254Z,0.70
2018-01-06T15:22:52.857Z,4.13
2018-01-06T15:25:20.347Z,1.97
2018-01-06T15:27:52.271Z,6.50
2018-01-06T15:30:19.816Z,1.57
2018-01-06T15:32:48.883Z,0.97
2018-01-06T15:35:17.248Z,0.80
2018-01-06T15:37:45.167Z,1.47
2018-01-06T15:40:13.076Z,1.87
2018-01-06T15:42:41.350Z,3.00
2018-01-06T15:45:09.336Z,1.27
2018-01-06T15:47:37.260Z,1.47
2018-01-06T15:50:04.774Z,1.33
2018-01-06T15:52:32.709Z,0.93
2018-01-06T15:55:00.999Z,2.03
2018-01-06T15:57:29.267Z,2.37
2018-01-06T15:59:57.592Z,1.40
2018-01-06T16:02:25.861Z,1.87
2018-01-06T16:04:53.838Z,1.80
2018-01-06T16:07:21.808Z,2.00
2018-01-06T16:09:49.743Z,2.73
2018-01-06T16:12:17.289Z,1.87
2018-01-06T16:14:44.880Z,3.07
2018-01-06T16:17:12.787Z,3.43
2018-01-06T16:19:40.303Z,3.83
2018-01-06T16:22:08.616Z,5.00
2018-01-06T16:24:36.158Z,6.27
2018-01-06T16:27:03.725Z,5.90
2018-01-06T16:29:31.624Z,3.40
2018-01-06T16:31:59.189Z,4.10
2018-01-06T16:34:26.698Z,4.53
2018-01-06T16:36:54.699Z,3.80
2018-01-06T16:39:22.215Z,4.80
2018-01-06T16:41:49.754Z,8.13
2018-01-06T16:44:19.079Z,12.60
2018-01-06T16:46:46.612Z,20.90
2018-01-06T16:49:14.112Z,18.43
2018-01-06T16:51:41.769Z,20.27
2018-01-06T16:54:09.738Z,16.67
2018-01-06T16:56:37.644Z,21.50
2018-01-06T16:59:06.633Z,14.50
2018-01-06T17:01:34.213Z,16.37
2018-01-06T17:04:01.790Z,15.03
2018-01-06T17:06:29.290Z,6.30
2018-01-06T17:08:57.262Z,6.80
2018-01-06T17:11:24.810Z,14.23
2018-01-06T17:13:52.735Z,12.73
2018-01-06T17:16:20.243Z,12.17
2018-01-06T17:18:48.180Z,11.70
2018-01-06T17:21:16.096Z,7.80
2018-01-06T17:23:43.636Z,7.33
2018-01-06T17:26:11.203Z,5.10
2018-01-06T17:28:38.753Z,4.00
2018-01-06T17:31:06.740Z,2.20
2018-01-06T17:33:34.210Z,2.13
2018-01-06T17:36:01.741Z,2.27
2018-01-06T17:38:29.692Z,2.97
2018-01-06T17:40:57.218Z,3.57
2018-01-06T17:43:25.168Z,2.03
2018-01-06T17:45:52.726Z,1.40
2018-01-06T17:48:20.217Z,2.43
2018-01-06T17:50:47.737Z,1.40
2018-01-06T17:53:15.285Z,2.43
2018-01-06T17:55:43.195Z,2.30
2018-01-06T17:58:11.129Z,3.30
2018-01-06T18:00:38.686Z,3.47
2018-01-06T18:03:06.223Z,2.33
2018-01-06T18:05:33.786Z,2.60
2018-01-06T18:08:01.302Z,2.87
2018-01-06T18:10:28.803Z,3.90
2018-01-06T18:12:56.371Z,5.83
2018-01-06T18:15:23.930Z,5.77
2018-01-06T18:17:51.898Z,5.93
2018-01-06T18:20:19.796Z,9.40
2018-01-06T18:22:47.370Z,11.93
2018-01-06T18:25:14.920Z,9.47
2018-01-06T18:27:42.484Z,11.53
2018-01-06T18:30:10.857Z,7.43
2018-01-06T18:32:38.787Z,5.97
2018-01-06T18:35:07.125Z,8.97
2018-01-06T18:37:35.432Z,4.20
2018-01-06T18:40:03.753Z,6.47
2018-01-06T18:42:31.643Z,5.83
2018-01-06T18:44:59.200Z,9.83
2018-01-06T18:47:27.152Z,15.97
2018-01-06T18:49:55.125Z,9.80
2018-01-06T18:52:23.805Z,8.63
2018-01-06T18:54:52.799Z,9.50
2018-01-06T18:57:20.311Z,9.87
2018-01-06T18:59:49.043Z,8.83
2018-01-06T19:02:17.362Z,7.13
2018-01-06T19:04:45.358Z,6.63
2018-01-06T19:07:13.297Z,6.37
2018-01-06T19:09:41.262Z,6.03
2018-01-06T19:12:09.040Z,8.40
2018-01-06T19:14:36.670Z,6.83
2018-01-06T19:17:04.229Z,6.03
2018-01-06T19:19:31.775Z,5.40
2018-01-06T19:21:59.354Z,7.10
2018-01-06T19:24:27.289Z,8.97
2018-01-06T19:26:54.870Z,10.70
2018-01-06T19:29:22.830Z,11.50
2018-01-06T19:31:50.802Z,8.10
2018-01-06T19:34:18.332Z,11.73
2018-01-06T19:36:46.302Z,13.57
2018-01-06T19:39:14.346Z,8.73
2018-01-06T19:41:42.389Z,9.47
2018-01-06T19:44:10.016Z,10.03
2018-01-06T19:46:37.596Z,9.93
2018-01-06T19:49:05.900Z,9.53
2018-01-06T19:51:33.474Z,10.07
2018-01-06T19:54:01.420Z,10.63
2018-01-06T19:56:28.990Z,19.73
2018-01-06T19:58:57.421Z,17.53
2018-01-06T20:01:27.767Z,20.40
2018-01-06T20:03:55.737Z,17.77
2018-01-06T20:06:23.299Z,15.40
2018-01-06T20:08:50.879Z,12.33
2018-01-06T20:11:18.437Z,14.50
2018-01-06T20:13:46.423Z,9.73
2018-01-06T20:16:14.383Z,5.90
2018-01-06T20:18:41.946Z,9.00
2018-01-06T20:21:09.887Z,9.20
2018-01-06T20:23:37.853Z,10.03
2018-01-06T20:26:05.409Z,7.80
2018-01-06T20:28:33.398Z,10.73
2018-01-06T20:31:01.349Z,9.20
2018-01-06T20:33:29.323Z,6.33
2018-01-06T20:35:56.881Z,5.43
2018-01-06T20:38:24.437Z,5.33
2018-01-06T20:40:52.003Z,4.43
2018-01-06T20:43:19.945Z,4.50
2018-01-06T20:45:47.911Z,2.87
2018-01-06T20:48:16.330Z,2.10
2018-01-06T20:50:43.989Z,3.20
2018-01-06T20:53:11.951Z,3.57
2018-01-06T20:55:39.941Z,2.67
2018-01-06T20:58:09.075Z,2.17
2018-01-06T21:00:37.054Z,1.63
2018-01-06T21:03:04.605Z,2.73
2018-01-06T21:05:32.195Z,2.23
2018-01-06T21:07:59.747Z,2.97
2018-01-06T21:10:27.306Z,4.17
2018-01-06T21:12:54.869Z,3.53
2018-01-06T21:15:22.813Z,2.90
2018-01-06T21:17:50.383Z,1.97
2018-01-06T21:20:17.937Z,2.10
2018-01-06T21:22:45.900Z,2.03
2018-01-06T21:25:13.463Z,2.23
2018-01-06T21:27:41.027Z,3.37
2018-01-06T21:30:08.989Z,3.47
2018-01-06T21:32:36.611Z,5.07
2018-01-06T21:35:04.216Z,3.17
2018-01-06T21:37:31.782Z,2.93
2018-01-06T21:39:59.395Z,4.77
2018-01-06T21:42:27.340Z,5.97
2018-01-06T21:44:55.682Z,4.80
2018-01-06T21:47:23.213Z,4.60
2018-01-06T21:49:51.546Z,6.17
2018-01-06T21:52:19.497Z,3.57
2018-01-06T21:54:47.454Z,3.63
2018-01-06T21:57:15.398Z,3.23
2018-01-06T21:59:42.954Z,4.07
2018-01-06T22:02:10.902Z,4.23
2018-01-06T22:04:38.870Z,2.40
2018-01-06T22:07:06.817Z,5.03
2018-01-06T22:09:34.393Z,3.97
2018-01-06T22:12:02.359Z,4.20
2018-01-06T22:14:30.332Z,4.47
2018-01-06T22:16:57.888Z,5.77
2018-01-06T22:19:27.008Z,5.40
2018-01-06T22:21:55.021Z,7.20
2018-01-06T22:30:10.377Z,8.07
2018-01-06T22:32:37.916Z,7.03
2018-01-06T22:35:05.522Z,5.30
2018-01-06T22:37:33.842Z,4.60
2018-01-06T22:40:01.402Z,3.63
2018-01-06T22:42:28.946Z,3.73
2018-01-06T22:44:56.522Z,3.93
2018-01-06T22:47:25.206Z,2.47
2018-01-06T22:49:53.143Z,3.57
2018-01-06T22:52:22.275Z,3.27
2018-01-06T22:54:50.601Z,2.47
2018-01-06T22:57:18.570Z,3.37
2018-01-06T22:59:47.030Z,1.33
2018-01-06T23:02:14.594Z,2.57
2018-01-06T23:04:42.136Z,2.70
2018-01-06T23:07:10.831Z,2.53
2018-01-06T23:09:38.395Z,4.17
2018-01-06T23:12:05.960Z,3.33
2018-01-06T23:14:34.269Z,2.70
2018-01-06T23:17:01.846Z,2.97
2018-01-06T23:19:29.810Z,1.80
2018-01-06T23:21:57.358Z,1.23
2018-01-06T23:24:24.925Z,2.70
2018-01-06T23:26:52.641Z,0.80
2018-01-06T23:29:20.207Z,1.43
2018-01-06T23:31:48.943Z,1.23
2018-01-06T23:34:16.533Z,2.80
2018-01-06T23:36:44.471Z,1.30
2018-01-06T23:39:12.447Z,4.10
2018-01-06T23:41:39.982Z,2.60
2018-01-06T23:44:07.942Z,1.40
2018-01-06T23:46:35.886Z,1.30
2018-01-06T23:49:03.447Z,1.50
2018-01-06T23:51:31.005Z,2.37
2018-01-06T23:53:58.570Z,2.57
2018-01-06T23:56:26.098Z,1.83
2018-01-06T23:58:53.654Z,2.60
